createdAt,value
2018-04-06T00:02:17.666Z,4.50
2018-04-06T00:04:45.426Z,4.37
2018-04-06T00:07:13.150Z,4.80
2018-04-06T00:09:40.851Z,4.80
2018-04-06T00:12:08.616Z,3.93
2018-04-06T00:14:36.384Z,4.17
2018-04-06T00:17:04.213Z,4.30
2018-04-06T00:19:31.913Z,4.30
2018-04-06T00:21:59.573Z,3.57
2018-04-06T00:24:27.288Z,4.03
2018-04-06T00:26:55.104Z,3.90
2018-04-06T00:29:22.866Z,4.43
2018-04-06T00:31:50.733Z,4.70
2018-04-06T00:34:18.454Z,3.90
2018-04-06T00:36:46.261Z,4.00
2018-04-06T00:39:14.035Z,3.97
2018-04-06T00:41:41.891Z,4.27
2018-04-06T00:44:09.658Z,4.50
2018-04-06T00:46:37.420Z,4.20
2018-04-06T00:49:05.087Z,4.03
2018-04-06T00:51:32.847Z,3.90
2018-04-06T00:54:00.618Z,3.33
2018-04-06T00:56:28.527Z,4.83
2018-04-06T00:58:56.243Z,4.90
2018-04-06T01:01:23.964Z,6.00
2018-04-06T01:03:51.776Z,6.77
2018-04-06T01:06:19.536Z,6.67
2018-04-06T01:08:47.257Z,4.77
2018-04-06T01:11:15.183Z,4.30
2018-04-06T01:13:42.891Z,5.00
2018-04-06T01:16:10.698Z,5.50
2018-04-06T01:18:38.462Z,4.93
2018-04-06T01:21:06.514Z,4.40
2018-04-06T01:23:34.254Z,4.37
2018-04-06T01:26:02.063Z,5.40
2018-04-06T01:28:29.725Z,5.67
2018-04-06T01:30:57.489Z,5.33
2018-04-06T01:33:25.253Z,5.57
2018-04-06T01:35:53.222Z,5.00
2018-04-06T01:38:21.004Z,5.40
2018-04-06T01:40:48.956Z,6.03
2018-04-06T01:43:16.661Z,5.13
2018-04-06T01:45:44.484Z,6.30
2018-04-06T01:48:12.194Z,5.47
2018-04-06T01:50:40.014Z,5.47
2018-04-06T01:53:07.675Z,6.40
2018-04-06T01:55:35.541Z,8.23
2018-04-06T01:58:03.308Z,10.03
2018-04-06T02:00:31.175Z,8.80
2018-04-06T02:02:58.853Z,8.40
2018-04-06T02:05:26.605Z,8.33
2018-04-06T02:07:54.363Z,9.03
2018-04-06T02:10:22.236Z,9.80
2018-04-06T02:12:49.997Z,7.70
2018-04-06T02:15:17.769Z,6.80
2018-04-06T02:17:45.626Z,6.60
2018-04-06T02:20:13.391Z,6.67
2018-04-06T02:22:41.258Z,6.33
2018-04-06T02:25:08.927Z,6.37
2018-04-06T02:27:36.788Z,6.60
2018-04-06T02:30:04.655Z,6.37
2018-04-06T02:32:32.413Z,7.70
2018-04-06T02:35:00.191Z,7.70
2018-04-06T02:37:28.051Z,6.53
2018-04-06T02:39:55.826Z,7.63
2018-04-06T02:42:23.567Z,8.20
2018-04-06T02:44:51.346Z,7.70
2018-04-06T02:47:19.107Z,8.00
2018-04-06T02:49:46.879Z,8.77
2018-04-06T02:52:15.558Z,7.00
2018-04-06T02:54:43.227Z,6.10
2018-04-06T02:57:10.987Z,7.77
2018-04-06T02:59:38.717Z,8.57
2018-04-06T03:02:06.466Z,8.70
2018-04-06T03:04:34.279Z,9.33
2018-04-06T03:07:02.095Z,7.90
2018-04-06T03:09:29.863Z,8.10
2018-04-06T03:11:57.570Z,7.43
2018-04-06T03:14:25.343Z,7.07
2018-04-06T03:16:53.305Z,6.50
2018-04-06T03:19:21.084Z,6.80
2018-04-06T03:21:48.942Z,8.00
2018-04-06T03:24:16.714Z,9.57
2018-04-06T03:26:44.567Z,8.50
2018-04-06T03:29:12.225Z,7.83
2018-04-06T03:31:39.994Z,6.93
2018-04-06T03:34:07.667Z,7.60
2018-04-06T03:36:35.492Z,7.70
2018-04-06T03:39:03.389Z,9.20
2018-04-06T03:41:31.255Z,7.90
2018-04-06T03:43:58.985Z,8.80
2018-04-06T03:46:26.648Z,8.57
2018-04-06T03:48:54.455Z,8.50
2018-04-06T03:51:22.416Z,10.10
2018-04-06T03:53:50.249Z,8.70
2018-04-06T03:56:18.048Z,8.10
2018-04-06T03:58:45.814Z,8.10
2018-04-06T04:01:13.679Z,8.17
2018-04-06T04:03:41.446Z,7.60
2018-04-06T04:06:09.310Z,8.07
2018-04-06T04:08:36.979Z,9.10
2018-04-06T04:11:04.737Z,8.73
2018-04-06T04:13:32.509Z,8.30
2018-04-06T04:16:00.328Z,7.70
2018-04-06T04:18:28.146Z,8.50
2018-04-06T04:20:55.853Z,8.07
2018-04-06T04:23:23.764Z,10.30
2018-04-06T04:25:51.490Z,9.37
2018-04-06T04:28:19.293Z,9.47
2018-04-06T04:30:46.955Z,8.53
2018-04-06T04:33:14.683Z,8.60
2018-04-06T04:35:42.484Z,8.87
2018-04-06T04:38:10.292Z,8.77
2018-04-06T04:40:38.118Z,9.60
2018-04-06T04:43:05.923Z,8.10
2018-04-06T04:45:33.643Z,9.60
2018-04-06T04:48:01.463Z,8.40
2018-04-06T04:50:29.280Z,8.87
2018-04-06T04:52:57.141Z,9.67
2018-04-06T04:55:24.908Z,9.30
2018-04-06T04:57:52.772Z,8.20
2018-04-06T05:00:20.493Z,8.60
2018-04-06T05:02:48.302Z,9.20
2018-04-06T05:05:16.121Z,9.70
2018-04-06T05:07:43.936Z,8.53
2018-04-06T05:10:11.753Z,8.77
2018-04-06T05:12:39.564Z,10.60
2018-04-06T05:15:07.390Z,10.00
2018-04-06T05:17:35.223Z,10.43
2018-04-06T05:20:03.165Z,10.60
2018-04-06T05:22:30.928Z,10.23
2018-04-06T05:24:58.796Z,9.20
2018-04-06T05:27:26.569Z,8.67
2018-04-06T05:29:54.324Z,9.00
2018-04-06T05:32:22.070Z,9.90
2018-04-06T05:34:49.955Z,8.37
2018-04-06T05:37:17.925Z,8.80
2018-04-06T05:39:45.808Z,8.03
2018-04-06T05:42:13.538Z,8.60
2018-04-06T05:44:41.284Z,8.67
2018-04-06T05:47:09.146Z,8.70
2018-04-06T05:49:37.707Z,9.30
2018-04-06T05:52:05.945Z,9.63
2018-04-06T05:54:33.711Z,9.80
2018-04-06T05:57:01.579Z,9.33
2018-04-06T05:59:29.237Z,8.67
2018-04-06T06:01:57.105Z,11.43
2018-04-06T06:04:24.839Z,9.43
2018-04-06T06:06:52.575Z,9.20
2018-04-06T06:09:20.187Z,8.60
2018-04-06T06:11:48.061Z,9.43
2018-04-06T06:14:16.546Z,8.37
2018-04-06T06:16:44.304Z,8.10
2018-04-06T06:19:12.077Z,7.30
2018-04-06T06:21:39.870Z,7.57
2018-04-06T06:24:07.702Z,7.57
2018-04-06T06:26:35.369Z,7.37
2018-04-06T06:29:03.261Z,7.83
2018-04-06T06:31:31.199Z,7.20
2018-04-06T06:33:58.965Z,8.60
2018-04-06T06:36:26.824Z,7.70
2018-04-06T06:38:54.597Z,9.47
2018-04-06T06:41:22.248Z,8.67
2018-04-06T06:43:50.022Z,7.93
2018-04-06T06:46:17.743Z,8.87
2018-04-06T06:48:45.451Z,8.37
2018-04-06T06:51:13.225Z,10.23
2018-04-06T06:53:41.085Z,8.83
2018-04-06T06:56:08.742Z,6.10
2018-04-06T06:58:36.411Z,6.60
2018-04-06T07:01:04.168Z,6.00
2018-04-06T07:03:31.937Z,7.73
2018-04-06T07:05:59.594Z,8.80
2018-04-06T07:08:27.462Z,8.73
2018-04-06T07:10:55.230Z,8.03
2018-04-06T07:13:23.092Z,7.17
2018-04-06T07:15:50.803Z,4.23
2018-04-06T07:18:18.622Z,6.80
2018-04-06T07:20:46.962Z,4.77
2018-04-06T07:23:14.767Z,6.93
2018-04-06T07:25:42.484Z,8.23
2018-04-06T07:28:10.293Z,7.57
2018-04-06T07:30:38.089Z,7.10
2018-04-06T07:33:05.923Z,5.33
2018-04-06T07:35:33.839Z,5.80
2018-04-06T07:38:01.659Z,8.60
2018-04-06T07:40:29.452Z,6.90
2018-04-06T07:42:57.295Z,8.17
2018-04-06T07:45:25.064Z,7.47
2018-04-06T07:47:53.024Z,7.50
2018-04-06T07:50:20.830Z,6.13
2018-04-06T07:52:48.660Z,7.37
2018-04-06T07:55:16.363Z,6.80
2018-04-06T07:57:44.290Z,7.37
2018-04-06T08:00:12.020Z,5.80
2018-04-06T08:02:40.937Z,4.07
2018-04-06T08:05:08.710Z,3.93
2018-04-06T08:07:36.505Z,5.70
2018-04-06T08:10:04.338Z,5.00
2018-04-06T08:12:32.426Z,6.73
2018-04-06T08:15:00.346Z,3.50
2018-04-06T08:17:28.379Z,6.13
2018-04-06T08:19:56.218Z,5.30
2018-04-06T08:22:24.290Z,4.67
2018-04-06T08:24:52.012Z,5.70
2018-04-06T08:27:20.693Z,6.83
2018-04-06T08:29:48.568Z,5.10
2018-04-06T08:32:16.470Z,5.60
2018-04-06T08:34:44.441Z,4.67
2018-04-06T08:37:12.271Z,3.90
2018-04-06T08:39:40.176Z,5.63
2018-04-06T08:42:08.057Z,4.50
2018-04-06T08:44:35.702Z,4.53
2018-04-06T08:47:03.571Z,5.20
2018-04-06T08:49:31.289Z,3.43
2018-04-06T08:51:59.098Z,4.60
2018-04-06T08:54:26.760Z,3.30
2018-04-06T08:56:54.626Z,4.30
2018-04-06T08:59:22.437Z,3.20
2018-04-06T09:01:50.402Z,5.60
2018-04-06T09:04:18.559Z,4.60
2018-04-06T09:06:46.407Z,4.23
2018-04-06T09:09:14.682Z,4.40
2018-04-06T09:11:43.365Z,4.53
2018-04-06T09:14:11.139Z,4.33
2018-04-06T09:16:39.098Z,4.13
2018-04-06T09:19:06.909Z,4.23
2018-04-06T09:21:34.728Z,4.20
2018-04-06T09:24:02.800Z,5.30
2018-04-06T09:26:30.509Z,5.93
2018-04-06T09:28:59.051Z,3.87
2018-04-06T09:31:28.190Z,4.60
2018-04-06T09:33:56.111Z,3.70
2018-04-06T09:36:23.876Z,5.63
2018-04-06T09:38:51.638Z,3.83
2018-04-06T09:41:19.507Z,3.00
2018-04-06T09:43:47.476Z,3.53
2018-04-06T09:46:15.285Z,4.60
2018-04-06T09:48:43.208Z,3.93
2018-04-06T09:51:11.081Z,3.80
2018-04-06T09:53:38.939Z,4.40
2018-04-06T09:56:06.801Z,4.03
2018-04-06T09:58:34.521Z,3.67
2018-04-06T10:01:02.932Z,4.10
2018-04-06T10:03:30.721Z,4.17
2018-04-06T10:05:58.372Z,2.97
2018-04-06T10:08:26.151Z,5.07
2018-04-06T10:10:53.964Z,4.00
2018-04-06T10:13:21.775Z,3.47
2018-04-06T10:15:49.427Z,2.67
2018-04-06T10:18:17.252Z,3.47
2018-04-06T10:20:45.069Z,3.60
2018-04-06T10:23:12.834Z,3.30
2018-04-06T10:25:40.609Z,2.63
2018-04-06T10:28:08.615Z,2.70
2018-04-06T10:30:36.333Z,3.07
2018-04-06T10:33:04.101Z,3.37
2018-04-06T10:35:31.860Z,2.70
2018-04-06T10:37:59.522Z,3.80
2018-04-06T10:40:27.811Z,2.63
2018-04-06T10:42:55.619Z,3.43
2018-04-06T10:45:23.428Z,3.63
2018-04-06T10:47:51.145Z,3.80
2018-04-06T10:50:18.958Z,2.97
2018-04-06T10:52:46.826Z,2.70
2018-04-06T10:55:14.554Z,2.77
2018-04-06T10:57:42.252Z,3.27
2018-04-06T11:00:09.991Z,3.40
2018-04-06T11:02:37.783Z,3.50
2018-04-06T11:05:05.546Z,3.00
2018-04-06T11:07:33.309Z,3.47
2018-04-06T11:10:01.000Z,3.20
2018-04-06T11:12:28.740Z,2.03
2018-04-06T11:14:56.546Z,3.60
2018-04-06T11:17:24.365Z,2.83
2018-04-06T11:19:52.229Z,2.27
2018-04-06T11:22:20.098Z,2.37
2018-04-06T11:24:48.331Z,2.63
2018-04-06T11:27:16.032Z,3.67
2018-04-06T11:29:43.805Z,3.57
2018-04-06T11:32:11.610Z,2.93
2018-04-06T11:34:39.436Z,3.03
2018-04-06T11:37:07.097Z,3.47
2018-04-06T11:39:34.964Z,3.07
2018-04-06T11:42:02.812Z,3.10
2018-04-06T11:44:30.603Z,3.00
2018-04-06T11:46:58.318Z,2.80
2018-04-06T11:49:26.079Z,2.50
2018-04-06T11:51:53.890Z,2.70
2018-04-06T11:54:21.756Z,3.60
2018-04-06T11:56:49.423Z,2.10
2018-04-06T11:59:17.284Z,2.90
2018-04-06T12:01:45.051Z,4.03
2018-04-06T12:04:12.999Z,1.80
2018-04-06T12:06:40.679Z,2.20
2018-04-06T12:09:08.450Z,2.50
2018-04-06T12:11:36.190Z,2.40
2018-04-06T12:14:03.987Z,2.80
2018-04-06T12:16:31.634Z,2.30
2018-04-06T12:18:59.402Z,2.87
2018-04-06T12:21:27.179Z,3.33
2018-04-06T12:23:55.034Z,2.50
2018-04-06T12:26:22.695Z,2.40
2018-04-06T12:28:50.475Z,2.40
2018-04-06T12:31:18.120Z,3.50
2018-04-06T12:33:46.097Z,3.20
2018-04-06T12:36:13.955Z,2.03
2018-04-06T12:38:41.823Z,3.00
2018-04-06T12:41:09.483Z,3.20
2018-04-06T12:43:37.354Z,3.47
2018-04-06T12:46:05.085Z,3.10
2018-04-06T12:48:32.789Z,2.93
2018-04-06T12:51:00.498Z,1.40
2018-04-06T12:53:28.309Z,2.20
2018-04-06T12:55:56.094Z,1.93
2018-04-06T12:58:23.937Z,2.30
2018-04-06T13:00:51.812Z,3.50
2018-04-06T13:03:19.569Z,1.90
2018-04-06T13:05:47.381Z,2.30
2018-04-06T13:08:15.201Z,2.70
2018-04-06T13:10:43.025Z,3.00
2018-04-06T13:13:10.865Z,2.90
2018-04-06T13:15:38.699Z,3.20
2018-04-06T13:18:06.417Z,3.27
2018-04-06T13:20:34.230Z,2.60
2018-04-06T13:23:01.976Z,2.90
2018-04-06T13:25:29.760Z,2.70
2018-04-06T13:27:57.483Z,2.43
2018-04-06T13:30:25.390Z,2.63
2018-04-06T13:32:53.095Z,1.97
2018-04-06T13:35:20.916Z,2.13
2018-04-06T13:37:48.648Z,2.20
2018-04-06T13:40:16.449Z,2.90
2018-04-06T13:42:44.214Z,2.90
2018-04-06T13:45:11.864Z,2.20
2018-04-06T13:47:39.638Z,1.60
2018-04-06T13:50:07.355Z,2.00
2018-04-06T13:52:35.166Z,2.60
2018-04-06T13:55:03.063Z,3.20
2018-04-06T13:57:31.010Z,3.33
2018-04-06T13:59:58.821Z,1.90
2018-04-06T14:02:26.636Z,2.30
2018-04-06T14:04:54.608Z,2.30
2018-04-06T14:07:22.367Z,3.00
2018-04-06T14:09:50.264Z,2.80
2018-04-06T14:12:18.100Z,2.20
2018-04-06T14:14:45.871Z,1.90
2018-04-06T14:17:13.611Z,2.53
2018-04-06T14:19:41.411Z,3.33
2018-04-06T14:22:09.119Z,3.10
2018-04-06T14:24:36.892Z,2.40
2018-04-06T14:27:04.690Z,2.43
2018-04-06T14:29:32.544Z,2.70
2018-04-06T14:32:00.259Z,2.50
2018-04-06T14:34:28.084Z,2.20
2018-04-06T14:36:55.847Z,2.80
2018-04-06T14:39:23.716Z,3.07
2018-04-06T14:41:51.473Z,2.50
2018-04-06T14:44:19.321Z,2.90
2018-04-06T14:46:47.212Z,1.97
2018-04-06T14:49:15.080Z,1.90
2018-04-06T14:51:42.744Z,1.80
2018-04-06T14:54:10.400Z,2.63
2018-04-06T14:56:38.251Z,2.93
2018-04-06T14:59:06.041Z,2.50
2018-04-06T15:01:33.910Z,2.03
2018-04-06T15:04:01.673Z,1.60
2018-04-06T15:06:29.390Z,2.10
2018-04-06T15:08:57.195Z,2.60
2018-04-06T15:11:25.062Z,2.20
2018-04-06T15:13:52.914Z,2.50
2018-04-06T15:16:20.757Z,2.03
2018-04-06T15:18:48.561Z,2.10
2018-04-06T15:21:16.428Z,1.77
2018-04-06T15:23:44.191Z,2.97
2018-04-06T15:26:11.965Z,2.07
2018-04-06T15:28:39.851Z,2.03
2018-04-06T15:31:07.612Z,2.67
2018-04-06T15:33:35.454Z,2.40
2018-04-06T15:36:04.792Z,2.80
2018-04-06T15:38:32.513Z,2.30
2018-04-06T15:41:00.387Z,1.70
2018-04-06T15:43:28.150Z,2.33
2018-04-06T15:45:56.078Z,2.53
2018-04-06T15:48:23.883Z,1.53
2018-04-06T15:50:51.649Z,1.80
2018-04-06T15:53:19.377Z,2.30
2018-04-06T15:55:53.073Z,3.00
2018-04-06T15:58:20.880Z,2.20
2018-04-06T16:00:48.646Z,3.20
2018-04-06T16:03:16.309Z,2.43
2018-04-06T16:05:44.174Z,3.10
2018-04-06T16:08:12.041Z,2.57
2018-04-06T16:10:39.769Z,2.57
2018-04-06T16:13:07.571Z,3.00
2018-04-06T16:15:35.237Z,2.90
2018-04-06T16:18:03.099Z,3.77
2018-04-06T16:20:30.863Z,3.00
2018-04-06T16:22:58.627Z,2.97
2018-04-06T16:25:26.339Z,3.20
2018-04-06T16:27:54.176Z,3.33
2018-04-06T16:30:21.927Z,2.70
2018-04-06T16:32:49.786Z,2.43
2018-04-06T16:35:17.627Z,2.60
2018-04-06T16:37:45.317Z,2.47
2018-04-06T16:40:13.043Z,2.30
2018-04-06T16:42:40.948Z,3.63
2018-04-06T16:45:08.565Z,2.83
2018-04-06T16:47:36.377Z,2.63
2018-04-06T16:50:04.078Z,2.63
2018-04-06T16:52:31.808Z,2.43
2018-04-06T16:54:59.573Z,3.13
2018-04-06T16:57:27.439Z,3.83
2018-04-06T16:59:55.197Z,2.00
2018-04-06T17:02:23.101Z,3.80
2018-04-06T17:04:50.728Z,3.50
2018-04-06T17:07:18.612Z,3.67
2018-04-06T17:09:46.458Z,3.70
2018-04-06T17:12:14.326Z,4.10
2018-04-06T17:14:42.202Z,3.43
2018-04-06T17:17:10.059Z,3.40
2018-04-06T17:19:37.928Z,3.40
2018-04-06T17:22:05.795Z,4.13
2018-04-06T17:24:33.559Z,4.33
2018-04-06T17:27:01.439Z,4.70
2018-04-06T17:29:29.338Z,4.07
2018-04-06T17:31:57.262Z,4.57
2018-04-06T17:34:24.933Z,3.53
2018-04-06T17:36:52.740Z,3.73
2018-04-06T17:39:20.453Z,4.30
2018-04-06T17:41:48.311Z,4.73
2018-04-06T17:44:16.293Z,4.80
2018-04-06T17:46:44.108Z,3.80
2018-04-06T17:49:11.957Z,4.50
2018-04-06T17:51:39.787Z,4.87
2018-04-06T17:54:07.654Z,3.90
2018-04-06T17:56:35.524Z,4.53
2018-04-06T17:59:03.388Z,4.97
2018-04-06T18:01:31.254Z,4.63
2018-04-06T18:03:59.122Z,4.63
2018-04-06T18:06:26.988Z,4.87
2018-04-06T18:08:54.855Z,4.83
2018-04-06T18:11:22.601Z,4.93
2018-04-06T18:13:50.487Z,4.40
2018-04-06T18:16:18.306Z,4.97
2018-04-06T18:18:46.220Z,4.80
2018-04-06T18:21:13.937Z,4.40
2018-04-06T18:23:41.746Z,4.37
2018-04-06T18:26:09.517Z,4.60
2018-04-06T18:28:37.381Z,4.43
2018-04-06T18:31:05.250Z,4.23
2018-04-06T18:33:33.069Z,5.20
2018-04-06T18:36:00.878Z,4.80
2018-04-06T18:38:28.745Z,5.60
2018-04-06T18:40:56.517Z,5.10
2018-04-06T18:43:24.336Z,5.20
2018-04-06T18:45:52.246Z,5.30
2018-04-06T18:48:20.220Z,4.83
2018-04-06T18:50:48.083Z,5.60
2018-04-06T18:53:15.898Z,6.07
2018-04-06T18:55:43.710Z,5.70
2018-04-06T18:58:11.578Z,5.60
2018-04-06T19:00:39.354Z,6.00
2018-04-06T19:03:07.209Z,5.53
2018-04-06T19:05:35.179Z,5.97
2018-04-06T19:08:03.045Z,5.73
2018-04-06T19:10:30.945Z,5.43
2018-04-06T19:12:58.786Z,5.30
2018-04-06T19:15:26.646Z,5.40
2018-04-06T19:17:54.512Z,5.20
2018-04-06T19:20:22.379Z,5.50
2018-04-06T19:22:50.212Z,5.20
2018-04-06T19:25:18.011Z,5.83
2018-04-06T19:27:45.883Z,4.90
2018-04-06T19:30:13.847Z,5.03
2018-04-06T19:32:41.714Z,4.90
2018-04-06T19:35:09.581Z,5.10
2018-04-06T19:37:37.448Z,4.90
2018-04-06T19:40:05.166Z,5.07
2018-04-06T19:42:33.040Z,5.10
2018-04-06T19:45:00.946Z,5.10
2018-04-06T19:47:28.717Z,4.60
2018-04-06T19:49:56.557Z,4.40
2018-04-06T19:52:24.398Z,4.43
2018-04-06T19:54:52.217Z,4.70
2018-04-06T19:57:20.053Z,4.83
2018-04-06T19:59:47.899Z,5.17
2018-04-06T20:02:15.601Z,4.63
2018-04-06T20:04:43.471Z,4.47
2018-04-06T20:07:11.339Z,4.50
2018-04-06T20:09:39.212Z,4.50
2018-04-06T20:12:07.072Z,5.30
2018-04-06T20:14:34.969Z,4.60
2018-04-06T20:17:02.809Z,5.00
2018-04-06T20:19:30.672Z,5.00
2018-04-06T20:21:58.539Z,4.90
2018-04-06T20:24:26.516Z,4.90
2018-04-06T20:26:54.376Z,4.10
2018-04-06T20:29:22.164Z,4.00
2018-04-06T20:31:49.962Z,4.70
2018-04-06T20:34:17.701Z,4.57
2018-04-06T20:36:45.534Z,4.03
2018-04-06T20:39:13.408Z,4.07
2018-04-06T20:41:41.310Z,3.70
2018-04-06T20:44:09.040Z,4.20
2018-04-06T20:46:37.006Z,4.60
2018-04-06T20:49:04.905Z,4.87
2018-04-06T20:51:32.736Z,4.67
2018-04-06T20:54:00.603Z,4.63
2018-04-06T20:56:28.368Z,4.80
2018-04-06T20:58:56.341Z,5.20
2018-04-06T21:01:24.084Z,4.33
2018-04-06T21:03:52.121Z,5.30
2018-04-06T21:06:19.937Z,4.70
2018-04-06T21:08:47.663Z,4.50
2018-04-06T21:11:15.425Z,4.10
2018-04-06T21:13:43.231Z,4.40
2018-04-06T21:16:11.098Z,4.70
2018-04-06T21:18:38.965Z,4.40
2018-04-06T21:21:06.831Z,4.63
2018-04-06T21:23:34.800Z,3.93
2018-04-06T21:26:02.667Z,4.23
2018-04-06T21:28:30.436Z,4.33
2018-04-06T21:30:58.267Z,4.40
2018-04-06T21:33:26.164Z,4.77
2018-04-06T21:35:54.135Z,4.87
2018-04-06T21:38:21.954Z,4.70
2018-04-06T21:40:49.766Z,4.53
2018-04-06T21:43:17.538Z,4.30
2018-04-06T21:45:45.505Z,4.27
2018-04-06T21:48:13.321Z,4.83
2018-04-06T21:50:41.194Z,4.90
2018-04-06T21:53:08.997Z,4.53
2018-04-06T21:55:36.887Z,4.80
2018-04-06T21:58:04.732Z,4.90
2018-04-06T22:00:32.493Z,5.67
2018-04-06T22:03:00.326Z,4.77
2018-04-06T22:05:28.226Z,4.93
2018-04-06T22:07:55.996Z,4.50
2018-04-06T22:10:23.964Z,5.33
2018-04-06T22:12:51.728Z,4.70
2018-04-06T22:15:19.492Z,4.50
2018-04-06T22:17:47.322Z,4.17
2018-04-06T22:20:15.126Z,4.70
2018-04-06T22:22:42.887Z,5.20
2018-04-06T22:25:10.719Z,4.50
2018-04-06T22:27:38.590Z,4.90
2018-04-06T22:30:06.452Z,4.53
2018-04-06T22:32:34.458Z,5.03
2018-04-06T22:35:02.211Z,4.97
2018-04-06T22:37:30.059Z,5.37
2018-04-06T22:39:57.956Z,5.20
2018-04-06T22:42:25.916Z,4.43
2018-04-06T22:44:53.692Z,4.30
2018-04-06T22:47:21.556Z,4.30
2018-04-06T22:49:49.323Z,4.47
2018-04-06T22:52:17.280Z,4.50
2018-04-06T22:54:45.055Z,5.03
2018-04-06T22:57:12.922Z,4.73
2018-04-06T22:59:40.681Z,4.60
2018-04-06T23:02:08.518Z,4.80
2018-04-06T23:04:36.506Z,5.10
2018-04-06T23:07:04.348Z,4.70
2018-04-06T23:09:32.290Z,4.30
2018-04-06T23:12:00.207Z,4.80
2018-04-06T23:14:28.091Z,5.57
2018-04-06T23:16:55.856Z,4.90
2018-04-06T23:19:23.722Z,4.27
2018-04-06T23:21:51.451Z,4.77
2018-04-06T23:24:19.252Z,4.97
2018-04-06T23:26:46.922Z,4.20
2018-04-06T23:29:15.809Z,4.70
2018-04-06T23:31:43.774Z,4.80
2018-04-06T23:34:11.640Z,5.10
2018-04-06T23:36:39.409Z,4.97
2018-04-06T23:39:07.292Z,4.50
2018-04-06T23:41:35.139Z,4.40
2018-04-06T23:44:02.952Z,4.70
2018-04-06T23:46:30.771Z,5.10
2018-04-06T23:48:58.846Z,4.30
2018-04-06T23:51:26.640Z,4.70
2018-04-06T23:53:54.473Z,5.07
2018-04-06T23:56:22.340Z,4.50
2018-04-06T23:58:50.151Z,4.80
